Time;durP1;ratioP1;P1;durP2;ratioP2;P2;SDS_P1;SDS_P2;PMS_P1;PMS_P2;Temp;Humidity;BMP_temperature;BMP_pressure;BME280_temperature;BME280_humidity;BME280_pressure;Samples;Min_cycle;Max_cycle;Signal;HPM_P1;HPM_P2
2022/05/16 00:01:57;;;;;;;;;;;18.20;43.80;;;;;;5059965;28;19939;-89
2022/05/16 00:04:23;;;;;;;;;;;18.20;44.30;;;;;;5059833;28;19920;-90
2022/05/16 00:06:48;;;;;;;;;;;18.20;44.20;;;;;;5059180;28;19963;-89
2022/05/16 00:09:15;;;;;;;;;;;18.20;44.10;;;;;;5060346;28;19924;-88
2022/05/16 00:11:41;;;;;;;;;;;18.10;44.00;;;;;;5060449;28;19917;-88
2022/05/16 00:14:07;;;;;;;;;;;18.10;43.80;;;;;;5059218;28;19943;-88
2022/05/16 00:16:33;;;;;;;;;;;18.10;43.90;;;;;;5060349;28;19913;-89
2022/05/16 00:18:58;;;;;;;;;;;18.00;43.80;;;;;;5061131;28;19919;-90
2022/05/16 00:21:24;;;;;;;;;;;17.90;44.00;;;;;;5060679;28;19921;-89
2022/05/16 00:23:49;;;;;;;;;;;17.90;44.10;;;;;;5061617;28;19920;-89
2022/05/16 00:26:15;;;;;;;;;;;17.80;44.40;;;;;;5061520;28;20369;-89
2022/05/16 00:28:40;;;;;;;;;;;17.80;44.50;;;;;;5079166;28;19916;-89
2022/05/16 00:31:06;;;;;;;;;;;17.80;44.40;;;;;;5051828;28;19917;-89
2022/05/16 00:33:32;;;;;;;;;;;17.80;44.30;;;;;;5059676;28;19918;-89
2022/05/16 00:35:57;;;;;;;;;;;17.80;44.20;;;;;;5078553;28;20284;-90
2022/05/16 00:38:23;;;;;;;;;;;17.70;44.20;;;;;;5078699;28;19916;-90
2022/05/16 00:40:48;;;;;;;;;;;17.80;44.20;;;;;;5078912;28;20008;-89
2022/05/16 00:43:21;;;;;;;;;;;17.70;44.20;;;;;;5077072;28;20328;-89
2022/05/16 00:45:47;;;;;;;;;;;17.70;44.30;;;;;;5062399;28;19920;-90
2022/05/16 00:48:12;;;;;;;;;;;17.70;44.40;;;;;;5057930;28;21504;-87
2022/05/16 00:50:40;;;;;;;;;;;17.60;44.40;;;;;;5070675;28;19916;-87
2022/05/16 00:53:07;;;;;;;;;;;17.50;44.50;;;;;;5079646;28;19959;-88
2022/05/16 00:55:33;;;;;;;;;;;17.50;44.50;;;;;;5069813;28;19923;-87
2022/05/16 00:58:01;;;;;;;;;;;17.50;44.60;;;;;;5079731;28;19913;-88
2022/05/16 01:00:31;;;;;;;;;;;17.40;44.60;;;;;;5081649;28;20010;-88
2022/05/16 01:05:43;;;;;;;;;;;17.30;44.90;;;;;;5080163;28;19924;-88
2022/05/16 01:08:11;;;;;;;;;;;17.30;44.90;;;;;;5060859;28;19896;-88
2022/05/16 01:10:37;;;;;;;;;;;17.20;45.00;;;;;;5079281;28;19916;-87
2022/05/16 01:13:04;;;;;;;;;;;17.20;45.10;;;;;;5077653;28;20256;-87
2022/05/16 01:15:34;;;;;;;;;;;17.20;45.10;;;;;;5060652;28;19924;-88
2022/05/16 01:18:00;;;;;;;;;;;17.20;45.10;;;;;;5065344;28;20367;-88
2022/05/16 01:20:41;;;;;;;;;;;17.10;45.10;;;;;;5060931;28;19916;-88
2022/05/16 01:23:08;;;;;;;;;;;17.00;45.10;;;;;;5075942;28;20271;-88
2022/05/16 01:25:34;;;;;;;;;;;17.00;45.20;;;;;;5078864;28;19923;-88
2022/05/16 01:28:04;;;;;;;;;;;17.00;45.40;;;;;;5060576;28;20395;-89
2022/05/16 01:30:35;;;;;;;;;;;17.00;45.50;;;;;;5077436;28;19993;-89
2022/05/16 01:33:00;;;;;;;;;;;17.00;45.40;;;;;;5060783;28;19913;-89
2022/05/16 01:35:28;;;;;;;;;;;16.90;45.30;;;;;;5059959;28;19935;-88
2022/05/16 01:40:38;;;;;;;;;;;16.80;45.20;;;;;;5079006;28;19923;-88
2022/05/16 01:43:04;;;;;;;;;;;16.80;45.30;;;;;;5079338;28;19920;-89
2022/05/16 01:45:30;;;;;;;;;;;16.80;45.30;;;;;;5056136;28;19921;-88
2022/05/16 01:47:55;;;;;;;;;;;16.70;45.40;;;;;;5068394;28;19913;-89
2022/05/16 01:50:21;;;;;;;;;;;16.70;45.70;;;;;;5055331;28;19912;-88
2022/05/16 01:52:46;;;;;;;;;;;16.70;45.70;;;;;;5060361;28;19943;-88
2022/05/16 01:55:12;;;;;;;;;;;16.60;46.00;;;;;;5077983;28;20025;-88
2022/05/16 01:57:38;;;;;;;;;;;16.60;46.30;;;;;;5078179;28;19919;-88
2022/05/16 02:00:05;;;;;;;;;;;16.70;46.20;;;;;;5059752;28;20016;-88
2022/05/16 02:02:30;;;;;;;;;;;16.60;46.30;;;;;;5058949;28;19927;-88
2022/05/16 02:04:56;;;;;;;;;;;16.70;46.40;;;;;;5078133;28;19948;-88
2022/05/16 02:07:21;;;;;;;;;;;16.60;46.60;;;;;;5059243;28;20323;-87
2022/05/16 02:09:47;;;;;;;;;;;16.70;46.60;;;;;;5059276;28;21623;-88
2022/05/16 02:12:12;;;;;;;;;;;16.70;46.70;;;;;;5058584;28;19916;-88
2022/05/16 02:14:38;;;;;;;;;;;16.70;46.70;;;;;;5077726;28;19919;-87
2022/05/16 02:17:03;;;;;;;;;;;16.70;46.70;;;;;;5052003;28;19916;-88
2022/05/16 02:19:29;;;;;;;;;;;16.70;46.80;;;;;;5069163;28;19919;-88
2022/05/16 02:24:39;;;;;;;;;;;16.70;46.80;;;;;;5077349;28;19943;-88
2022/05/16 02:27:08;;;;;;;;;;;16.60;47.00;;;;;;5071319;28;19917;-89
2022/05/16 02:29:37;;;;;;;;;;;16.60;47.00;;;;;;5070183;28;19950;-89
2022/05/16 02:32:03;;;;;;;;;;;16.70;47.00;;;;;;5055355;28;19917;-88
2022/05/16 02:34:28;;;;;;;;;;;16.70;46.90;;;;;;5057823;28;19912;-89
2022/05/16 02:36:54;;;;;;;;;;;16.60;46.80;;;;;;5057802;28;19920;-89
2022/05/16 02:39:19;;;;;;;;;;;16.60;46.80;;;;;;5078017;28;19947;-88
2022/05/16 02:41:45;;;;;;;;;;;16.60;47.20;;;;;;5059753;28;19935;-89
2022/05/16 02:44:12;;;;;;;;;;;16.60;47.40;;;;;;5058689;28;19916;-88
2022/05/16 02:46:37;;;;;;;;;;;16.60;47.30;;;;;;5056483;28;20015;-89
2022/05/16 02:49:03;;;;;;;;;;;16.60;47.40;;;;;;5076816;28;19952;-89
2022/05/16 02:51:28;;;;;;;;;;;16.60;47.40;;;;;;5059376;28;19917;-89
2022/05/16 02:53:54;;;;;;;;;;;16.60;47.30;;;;;;5073869;28;20369;-89
2022/05/16 02:56:20;;;;;;;;;;;16.50;47.20;;;;;;5098705;28;20011;-87
2022/05/16 02:58:45;;;;;;;;;;;16.50;47.10;;;;;;5080751;28;19955;-89
2022/05/16 03:01:11;;;;;;;;;;;16.50;47.20;;;;;;5079068;28;19916;-89
2022/05/16 03:03:38;;;;;;;;;;;16.50;47.50;;;;;;5097794;28;19923;-89
2022/05/16 03:06:04;;;;;;;;;;;16.50;47.30;;;;;;5066467;28;19931;-89
2022/05/16 03:08:29;;;;;;;;;;;16.50;47.40;;;;;;5060459;28;20352;-89
2022/05/16 03:10:55;;;;;;;;;;;16.50;47.40;;;;;;5060042;28;19924;-89
2022/05/16 03:13:20;;;;;;;;;;;16.40;47.40;;;;;;5077839;28;19913;-89
2022/05/16 03:15:46;;;;;;;;;;;16.40;47.40;;;;;;5059609;28;19928;-89
2022/05/16 03:18:12;;;;;;;;;;;16.40;47.50;;;;;;5059281;28;19916;-89
2022/05/16 03:20:37;;;;;;;;;;;16.30;47.50;;;;;;5057465;28;19923;-88
2022/05/16 03:23:03;;;;;;;;;;;16.30;47.70;;;;;;5066983;28;19943;-89
2022/05/16 03:25:28;;;;;;;;;;;16.30;47.70;;;;;;5095964;28;20267;-88
2022/05/16 03:27:54;;;;;;;;;;;16.30;47.70;;;;;;5076913;28;19917;-89
2022/05/16 03:30:19;;;;;;;;;;;16.30;47.90;;;;;;5076718;28;19916;-88
2022/05/16 03:32:46;;;;;;;;;;;16.40;48.10;;;;;;5058286;28;19912;-88
2022/05/16 03:35:11;;;;;;;;;;;16.40;48.00;;;;;;5059503;28;20312;-89
2022/05/16 03:37:37;;;;;;;;;;;16.40;47.90;;;;;;5069943;28;19919;-89
2022/05/16 03:42:47;;;;;;;;;;;16.40;48.30;;;;;;5064950;28;20339;-88
2022/05/16 03:45:13;;;;;;;;;;;16.40;48.30;;;;;;5046012;28;19912;-88
2022/05/16 03:47:38;;;;;;;;;;;16.40;48.30;;;;;;5061606;28;19912;-88
2022/05/16 03:50:04;;;;;;;;;;;16.50;48.50;;;;;;5058542;28;19916;-88
2022/05/16 03:52:29;;;;;;;;;;;16.60;48.50;;;;;;5057026;28;19920;-88
2022/05/16 03:54:55;;;;;;;;;;;16.70;48.80;;;;;;5074968;28;19957;-88
2022/05/16 03:57:22;;;;;;;;;;;16.80;48.90;;;;;;5051939;28;20253;-88
2022/05/16 03:59:47;;;;;;;;;;;17.00;49.00;;;;;;5073123;28;19924;-88
2022/05/16 04:02:13;;;;;;;;;;;17.20;49.10;;;;;;5058133;28;19917;-88
2022/05/16 04:04:38;;;;;;;;;;;17.40;49.00;;;;;;5065837;28;19924;-89
2022/05/16 04:07:04;;;;;;;;;;;17.60;49.00;;;;;;5046222;28;19960;-88
2022/05/16 04:09:29;;;;;;;;;;;17.80;49.10;;;;;;5038942;28;19921;-89
2022/05/16 04:11:55;;;;;;;;;;;18.10;49.20;;;;;;5057627;28;19931;-89
2022/05/16 04:14:20;;;;;;;;;;;18.40;49.00;;;;;;5048455;28;20003;-90
2022/05/16 04:16:46;;;;;;;;;;;18.80;48.90;;;;;;5042179;28;19917;-88
2022/05/16 04:19:11;;;;;;;;;;;19.10;48.60;;;;;;5068813;28;19916;-90
2022/05/16 04:21:38;;;;;;;;;;;19.40;48.40;;;;;;5055871;28;19980;-90
2022/05/16 04:24:05;;;;;;;;;;;19.70;48.10;;;;;;5045998;28;20012;-89
2022/05/16 04:26:30;;;;;;;;;;;20.10;47.80;;;;;;5071977;28;20368;-89
2022/05/16 04:28:57;;;;;;;;;;;20.50;47.50;;;;;;5069929;28;19919;-89
2022/05/16 04:31:23;;;;;;;;;;;20.80;47.10;;;;;;5054661;28;19917;-89
2022/05/16 04:33:48;;;;;;;;;;;21.30;46.50;;;;;;5062184;28;19897;-89
2022/05/16 04:36:13;;;;;;;;;;;21.70;45.80;;;;;;5080382;28;20363;-90
2022/05/16 04:38:39;;;;;;;;;;;22.00;45.20;;;;;;5062273;28;19923;-90
2022/05/16 04:43:50;;;;;;;;;;;22.80;44.10;;;;;;5079478;28;19924;-89
2022/05/16 04:46:15;;;;;;;;;;;23.20;43.70;;;;;;5077709;28;19917;-90
2022/05/16 04:48:41;;;;;;;;;;;23.60;43.40;;;;;;5077654;28;19912;-89
2022/05/16 04:51:06;;;;;;;;;;;24.10;42.60;;;;;;5063514;28;19924;-90
2022/05/16 04:53:32;;;;;;;;;;;24.50;42.00;;;;;;5061919;28;20572;-88
2022/05/16 04:55:58;;;;;;;;;;;25.00;41.40;;;;;;5062302;28;20387;-88
2022/05/16 04:58:23;;;;;;;;;;;25.40;41.00;;;;;;5062158;28;19913;-89
2022/05/16 05:00:49;;;;;;;;;;;25.90;40.50;;;;;;5056369;28;19951;-90
2022/05/16 05:03:14;;;;;;;;;;;26.40;39.90;;;;;;5067182;28;19921;-90
2022/05/16 05:05:40;;;;;;;;;;;26.80;39.20;;;;;;5063527;28;19924;-90
2022/05/16 05:08:05;;;;;;;;;;;27.30;38.10;;;;;;5062205;28;19935;-89
2022/05/16 05:16:19;;;;;;;;;;;28.40;35.70;;;;;;5078607;28;19923;-89
2022/05/16 05:18:46;;;;;;;;;;;28.90;34.40;;;;;;5084929;28;19919;-89
2022/05/16 05:21:11;;;;;;;;;;;29.30;32.80;;;;;;5078632;28;20007;-90
2022/05/16 05:23:39;;;;;;;;;;;29.60;32.30;;;;;;5077373;28;19952;-89
2022/05/16 05:26:05;;;;;;;;;;;29.80;31.50;;;;;;5084094;28;19927;-88
2022/05/16 05:28:31;;;;;;;;;;;30.10;30.50;;;;;;5079366;28;19912;-88
2022/05/16 05:30:57;;;;;;;;;;;30.30;30.00;;;;;;5074083;28;20304;-89
2022/05/16 05:33:23;;;;;;;;;;;30.50;29.50;;;;;;5074846;28;19917;-88
2022/05/16 05:35:48;;;;;;;;;;;30.70;29.20;;;;;;5080389;28;19917;-89
2022/05/16 05:38:14;;;;;;;;;;;31.00;28.60;;;;;;5077607;28;19936;-89
2022/05/16 05:40:39;;;;;;;;;;;31.30;28.40;;;;;;5061224;28;19920;-88
2022/05/16 05:43:06;;;;;;;;;;;31.50;27.80;;;;;;5067987;28;19916;-89
2022/05/16 05:45:32;;;;;;;;;;;31.80;27.30;;;;;;5080035;28;19948;-89
2022/05/16 05:47:57;;;;;;;;;;;32.10;26.80;;;;;;5070505;28;20004;-89
2022/05/16 05:50:24;;;;;;;;;;;32.30;26.50;;;;;;5057353;28;19952;-88
2022/05/16 05:52:49;;;;;;;;;;;32.50;26.30;;;;;;5066248;28;19917;-89
2022/05/16 05:55:15;;;;;;;;;;;32.80;26.10;;;;;;5065368;28;19915;-89
2022/05/16 05:57:40;;;;;;;;;;;33.20;25.80;;;;;;5056754;28;19966;-88
2022/05/16 06:00:09;;;;;;;;;;;33.50;24.90;;;;;;5062728;28;20018;-88
2022/05/16 06:02:40;;;;;;;;;;;33.60;24.10;;;;;;5048195;28;19924;-89
2022/05/16 06:05:11;;;;;;;;;;;33.50;23.90;;;;;;5059416;28;19968;-89
2022/05/16 06:07:36;;;;;;;;;;;33.40;23.90;;;;;;5066452;28;20327;-88
2022/05/16 06:10:02;;;;;;;;;;;33.30;23.80;;;;;;5081964;28;19964;-89
2022/05/16 06:12:28;;;;;;;;;;;33.30;23.90;;;;;;5078365;28;20272;-88
2022/05/16 06:14:53;;;;;;;;;;;33.50;24.10;;;;;;5076006;28;19916;-89
2022/05/16 06:17:20;;;;;;;;;;;33.70;24.10;;;;;;5084582;28;19976;-88
2022/05/16 06:19:46;;;;;;;;;;;33.70;23.60;;;;;;5065513;28;19921;-88
2022/05/16 06:22:11;;;;;;;;;;;33.60;23.70;;;;;;5088003;28;20013;-89
2022/05/16 06:27:21;;;;;;;;;;;33.70;23.80;;;;;;5077980;28;19923;-89
2022/05/16 06:29:46;;;;;;;;;;;33.70;23.40;;;;;;5065090;28;19920;-89
2022/05/16 06:32:12;;;;;;;;;;;33.80;23.50;;;;;;5061414;28;20582;-89
2022/05/16 06:34:37;;;;;;;;;;;33.90;23.40;;;;;;5075609;28;20642;-89
2022/05/16 06:37:03;;;;;;;;;;;34.00;23.10;;;;;;5069728;28;19916;-89
2022/05/16 06:39:28;;;;;;;;;;;34.10;22.90;;;;;;5072457;28;20678;-89
2022/05/16 06:41:54;;;;;;;;;;;34.20;22.60;;;;;;5051296;28;20001;-89
2022/05/16 06:44:19;;;;;;;;;;;34.30;22.70;;;;;;5066136;28;19973;-89
2022/05/16 06:46:45;;;;;;;;;;;34.50;22.30;;;;;;5048447;28;20347;-89
2022/05/16 06:49:12;;;;;;;;;;;34.70;22.40;;;;;;5072577;28;19921;-89
2022/05/16 06:51:38;;;;;;;;;;;34.80;22.20;;;;;;5062779;28;19955;-89
2022/05/16 06:54:05;;;;;;;;;;;35.00;22.10;;;;;;5068062;28;19943;-89
2022/05/16 06:56:30;;;;;;;;;;;35.20;21.90;;;;;;5080234;28;20429;-89
2022/05/16 06:58:56;;;;;;;;;;;35.40;22.00;;;;;;5068471;28;19900;-89
2022/05/16 07:01:21;;;;;;;;;;;35.70;21.70;;;;;;5072186;28;19920;-89
2022/05/16 07:03:46;;;;;;;;;;;35.90;21.10;;;;;;5065764;28;19934;-89
2022/05/16 07:06:14;;;;;;;;;;;36.10;21.10;;;;;;5044539;28;19916;-89
2022/05/16 07:08:40;;;;;;;;;;;36.30;20.80;;;;;;5066882;28;19927;-89
2022/05/16 07:11:06;;;;;;;;;;;36.30;20.80;;;;;;5067167;28;19912;-89
2022/05/16 07:13:31;;;;;;;;;;;36.40;20.70;;;;;;5070298;28;19928;-90
2022/05/16 07:15:57;;;;;;;;;;;36.50;20.60;;;;;;5074517;28;19916;-89
2022/05/16 07:18:23;;;;;;;;;;;36.60;20.60;;;;;;5061123;28;20287;-90
2022/05/16 07:20:48;;;;;;;;;;;36.70;20.20;;;;;;5066434;28;19983;-90
2022/05/16 07:23:14;;;;;;;;;;;36.70;20.00;;;;;;5077824;28;19936;-90
2022/05/16 07:28:24;;;;;;;;;;;36.70;20.10;;;;;;5082999;28;19926;-89
2022/05/16 07:30:49;;;;;;;;;;;36.80;20.40;;;;;;5069930;28;19920;-89
2022/05/16 07:33:15;;;;;;;;;;;37.00;20.30;;;;;;5082091;28;19988;-89
2022/05/16 07:35:41;;;;;;;;;;;37.30;20.10;;;;;;5061054;28;20364;-89
2022/05/16 07:38:06;;;;;;;;;;;37.40;19.80;;;;;;5081518;28;19927;-89
2022/05/16 07:40:32;;;;;;;;;;;37.60;19.50;;;;;;5069601;28;19920;-90
2022/05/16 07:42:58;;;;;;;;;;;37.80;19.60;;;;;;5077020;28;19982;-89
2022/05/16 07:45:24;;;;;;;;;;;38.00;19.10;;;;;;5060936;28;20411;-89
2022/05/16 07:47:50;;;;;;;;;;;38.30;18.90;;;;;;5065822;28;19901;-89
2022/05/16 07:50:16;;;;;;;;;;;38.50;18.60;;;;;;5065342;28;19995;-90
2022/05/16 07:52:48;;;;;;;;;;;38.70;18.50;;;;;;5066736;28;19920;-89
2022/05/16 07:55:21;;;;;;;;;;;38.70;18.00;;;;;;5076219;28;19918;-89
2022/05/16 07:57:46;;;;;;;;;;;38.60;18.20;;;;;;5072869;28;19923;-89
2022/05/16 08:00:13;;;;;;;;;;;38.80;18.20;;;;;;5058976;28;20431;-89
2022/05/16 08:02:39;;;;;;;;;;;38.90;18.10;;;;;;5061076;28;20000;-89
2022/05/16 08:05:06;;;;;;;;;;;39.10;18.30;;;;;;5065982;28;20008;-88
2022/05/16 08:07:31;;;;;;;;;;;39.30;18.00;;;;;;5065045;28;19929;-89
2022/05/16 08:12:41;;;;;;;;;;;39.80;17.90;;;;;;5081508;28;19958;-90
2022/05/16 08:15:07;;;;;;;;;;;39.90;17.70;;;;;;5074362;28;19913;-89
2022/05/16 08:17:33;;;;;;;;;;;40.10;17.90;;;;;;5072872;28;19966;-89
2022/05/16 08:19:59;;;;;;;;;;;40.20;17.80;;;;;;5076685;28;19923;-89
2022/05/16 08:22:28;;;;;;;;;;;40.30;17.60;;;;;;5078187;28;19920;-90
2022/05/16 08:24:54;;;;;;;;;;;40.50;17.40;;;;;;5065736;28;20033;-90
2022/05/16 08:27:19;;;;;;;;;;;40.30;17.30;;;;;;5084844;28;19924;-89
2022/05/16 08:29:45;;;;;;;;;;;40.20;17.40;;;;;;5072180;28;19983;-90
2022/05/16 08:32:15;;;;;;;;;;;40.20;17.40;;;;;;5084074;28;20006;-90
2022/05/16 08:34:41;;;;;;;;;;;40.10;17.40;;;;;;5062934;28;19958;-90
2022/05/16 08:39:56;;;;;;;;;;;39.90;17.40;;;;;;5071482;28;19923;-89
2022/05/16 08:42:44;;;;;;;;;;;39.60;17.70;;;;;;5068027;28;20246;-89
2022/05/16 08:45:31;;;;;;;;;;;39.50;18.10;;;;;;5073050;28;19924;-89
2022/05/16 08:48:06;;;;;;;;;;;39.40;18.00;;;;;;5039918;28;19917;-89
2022/05/16 08:50:39;;;;;;;;;;;39.30;18.10;;;;;;5074970;28;20602;-90
2022/05/16 08:53:07;;;;;;;;;;;39.10;18.10;;;;;;5056491;28;19920;-89
2022/05/16 08:55:34;;;;;;;;;;;38.90;18.30;;;;;;5080221;28;19977;-89
2022/05/16 08:58:09;;;;;;;;;;;38.70;18.50;;;;;;5067958;28;19920;-89
2022/05/16 09:00:34;;;;;;;;;;;38.60;18.80;;;;;;5068615;28;19955;-89
2022/05/16 09:03:03;;;;;;;;;;;38.50;18.90;;;;;;5070287;28;19955;-90
2022/05/16 09:05:32;;;;;;;;;;;38.30;19.20;;;;;;5065983;28;19908;-88
2022/05/16 09:07:58;;;;;;;;;;;38.30;19.10;;;;;;5064327;28;20004;-87
2022/05/16 09:10:25;;;;;;;;;;;38.30;19.40;;;;;;5058711;28;19931;-89
2022/05/16 09:13:00;;;;;;;;;;;38.30;19.30;;;;;;5071425;28;19908;-89
2022/05/16 09:15:30;;;;;;;;;;;38.40;19.20;;;;;;5085775;28;19923;-88
2022/05/16 09:18:15;;;;;;;;;;;38.30;19.20;;;;;;5061237;28;19989;-89
2022/05/16 09:21:03;;;;;;;;;;;38.30;19.50;;;;;;5055829;28;20268;-89
2022/05/16 09:23:48;;;;;;;;;;;38.30;19.60;;;;;;5068104;28;19917;-90
2022/05/16 09:26:16;;;;;;;;;;;38.50;19.80;;;;;;5063887;28;19920;-89
2022/05/16 09:28:46;;;;;;;;;;;38.40;19.70;;;;;;5067214;28;19994;-88
2022/05/16 09:31:17;;;;;;;;;;;38.30;19.80;;;;;;5057611;28;19967;-89
2022/05/16 09:33:46;;;;;;;;;;;38.30;20.00;;;;;;5078990;28;19920;-89
2022/05/16 09:36:14;;;;;;;;;;;38.30;20.00;;;;;;5072652;28;19916;-87
2022/05/16 09:38:44;;;;;;;;;;;38.40;19.90;;;;;;5065432;28;20086;-88
2022/05/16 09:41:28;;;;;;;;;;;38.30;19.80;;;;;;5082142;28;19916;-89
2022/05/16 09:43:58;;;;;;;;;;;38.30;19.90;;;;;;5063798;28;19924;-89
2022/05/16 09:46:40;;;;;;;;;;;38.40;19.80;;;;;;5067698;28;19920;-87
2022/05/16 09:49:06;;;;;;;;;;;38.30;19.90;;;;;;5076137;28;19912;-88
2022/05/16 09:51:39;;;;;;;;;;;38.10;20.00;;;;;;5085246;28;20003;-87
2022/05/16 09:54:22;;;;;;;;;;;38.20;20.20;;;;;;5077912;28;19913;-88
2022/05/16 09:56:55;;;;;;;;;;;38.50;20.40;;;;;;5071216;28;20380;-88
2022/05/16 09:59:32;;;;;;;;;;;39.20;20.10;;;;;;5069748;28;19916;-88
2022/05/16 10:02:06;;;;;;;;;;;39.70;19.80;;;;;;5066357;28;19916;-89
2022/05/16 10:04:38;;;;;;;;;;;40.30;19.50;;;;;;5069998;28;19929;-87
2022/05/16 10:07:04;;;;;;;;;;;40.60;19.00;;;;;;5060596;28;19938;-89
2022/05/16 10:09:36;;;;;;;;;;;40.60;18.70;;;;;;5064029;28;20414;-88
2022/05/16 10:12:02;;;;;;;;;;;40.40;18.70;;;;;;5065663;28;20341;-88
2022/05/16 10:14:28;;;;;;;;;;;40.40;18.90;;;;;;5073670;28;20251;-88
2022/05/16 10:16:53;;;;;;;;;;;40.40;19.00;;;;;;5061315;28;19923;-88
2022/05/16 10:19:21;;;;;;;;;;;40.50;19.10;;;;;;5058523;28;19917;-88
2022/05/16 10:21:52;;;;;;;;;;;41.00;19.10;;;;;;5083210;28;19941;-89
2022/05/16 10:24:18;;;;;;;;;;;41.80;18.70;;;;;;5074145;28;19933;-89
2022/05/16 10:26:46;;;;;;;;;;;42.40;18.20;;;;;;5054972;28;20356;-89
2022/05/16 10:29:12;;;;;;;;;;;42.80;17.30;;;;;;5074335;28;19917;-88
2022/05/16 10:34:33;;;;;;;;;;;42.50;17.10;;;;;;5074237;28;19932;-89
2022/05/16 10:37:02;;;;;;;;;;;42.60;17.10;;;;;;5069955;28;19999;-88
2022/05/16 10:39:29;;;;;;;;;;;42.70;17.00;;;;;;5063675;28;20054;-88
2022/05/16 10:42:00;;;;;;;;;;;42.60;16.90;;;;;;5075763;28;19927;-89
2022/05/16 10:44:29;;;;;;;;;;;42.50;17.00;;;;;;5069833;28;19944;-88
2022/05/16 10:47:00;;;;;;;;;;;42.40;17.10;;;;;;5071255;28;20349;-89
2022/05/16 10:49:28;;;;;;;;;;;42.30;17.30;;;;;;5066989;28;19927;-88
2022/05/16 10:51:53;;;;;;;;;;;42.20;17.30;;;;;;5041644;28;20254;-89
2022/05/16 10:54:20;;;;;;;;;;;42.20;17.50;;;;;;5077838;28;19955;-88
2022/05/16 10:56:53;;;;;;;;;;;42.10;17.60;;;;;;5050680;28;19913;-88
2022/05/16 10:59:25;;;;;;;;;;;42.00;17.60;;;;;;5061953;28;20259;-89
2022/05/16 11:02:09;;;;;;;;;;;42.00;17.70;;;;;;5075127;28;19916;-88
2022/05/16 11:04:34;;;;;;;;;;;41.80;17.70;;;;;;5069623;28;19932;-88
2022/05/16 11:07:00;;;;;;;;;;;41.50;17.80;;;;;;5061302;28;19913;-89
2022/05/16 11:09:36;;;;;;;;;;;41.20;17.50;;;;;;5075893;28;19916;-89
2022/05/16 11:12:05;;;;;;;;;;;40.80;17.80;;;;;;5050627;28;19935;-89
2022/05/16 11:14:40;;;;;;;;;;;40.40;18.10;;;;;;5070985;28;20292;-88
2022/05/16 11:17:13;;;;;;;;;;;40.10;18.30;;;;;;5053779;28;20012;-89
2022/05/16 11:19:49;;;;;;;;;;;39.80;18.60;;;;;;5066457;28;20357;-88
2022/05/16 11:22:18;;;;;;;;;;;39.40;18.70;;;;;;5071675;28;19988;-88
2022/05/16 11:24:50;;;;;;;;;;;39.10;19.00;;;;;;5071196;28;20823;-88
2022/05/16 11:27:20;;;;;;;;;;;38.80;19.40;;;;;;5066098;28;19913;-88
2022/05/16 11:29:45;;;;;;;;;;;38.50;19.70;;;;;;5060711;28;19928;-89
2022/05/16 11:32:20;;;;;;;;;;;38.20;20.00;;;;;;5062090;28;19913;-89
2022/05/16 11:34:52;;;;;;;;;;;38.00;20.20;;;;;;5061604;28;19924;-88
2022/05/16 11:37:38;;;;;;;;;;;38.00;20.50;;;;;;5076961;28;19923;-89
2022/05/16 11:40:13;;;;;;;;;;;38.20;20.60;;;;;;5072179;28;19921;-88
2022/05/16 11:42:38;;;;;;;;;;;38.20;20.60;;;;;;5071704;28;19913;-89
2022/05/16 11:45:08;;;;;;;;;;;38.30;20.70;;;;;;5073993;28;19982;-88
2022/05/16 11:47:55;;;;;;;;;;;38.40;20.70;;;;;;5060110;28;19913;-89
2022/05/16 11:50:20;;;;;;;;;;;38.50;20.70;;;;;;5069053;28;19946;-89
2022/05/16 11:52:55;;;;;;;;;;;38.80;20.70;;;;;;5060505;28;19927;-88
2022/05/16 12:00:55;;;;;;;;;;;39.40;20.10;;;;;;5072033;28;19923;-88
2022/05/16 12:03:21;;;;;;;;;;;39.30;20.10;;;;;;5063012;28;19970;-89
2022/05/16 12:05:48;;;;;;;;;;;39.30;20.00;;;;;;5074324;28;19938;-89
2022/05/16 12:08:28;;;;;;;;;;;39.10;19.90;;;;;;5067958;28;19923;-88
2022/05/16 12:11:02;;;;;;;;;;;39.00;20.10;;;;;;5072806;28;19979;-88
2022/05/16 12:13:33;;;;;;;;;;;38.80;20.40;;;;;;5076338;28;20442;-88
2022/05/16 12:16:08;;;;;;;;;;;38.60;20.70;;;;;;5055781;28;20310;-88
2022/05/16 12:18:40;;;;;;;;;;;38.50;20.90;;;;;;5057894;28;20062;-88
2022/05/16 12:21:09;;;;;;;;;;;38.50;21.00;;;;;;5068973;28;19976;-88
2022/05/16 12:23:49;;;;;;;;;;;38.60;21.00;;;;;;5060237;28;19925;-89
2022/05/16 12:26:27;;;;;;;;;;;38.60;20.90;;;;;;5055556;28;19921;-88
2022/05/16 12:29:08;;;;;;;;;;;38.50;20.90;;;;;;5080681;28;19919;-88
2022/05/16 12:31:45;;;;;;;;;;;38.30;21.10;;;;;;5062286;28;19979;-88
2022/05/16 12:34:12;;;;;;;;;;;38.20;21.40;;;;;;5066639;28;19908;-89
2022/05/16 12:36:39;;;;;;;;;;;37.90;21.50;;;;;;5057157;28;19916;-88
2022/05/16 12:39:11;;;;;;;;;;;37.70;21.50;;;;;;5082463;28;19916;-88
2022/05/16 12:42:00;;;;;;;;;;;37.30;21.90;;;;;;5066138;28;19948;-88
2022/05/16 12:44:32;;;;;;;;;;;37.00;22.20;;;;;;5055959;28;20383;-87
2022/05/16 12:47:10;;;;;;;;;;;36.80;22.40;;;;;;5058467;28;19900;-86
2022/05/16 12:49:54;;;;;;;;;;;36.70;22.50;;;;;;5072847;28;19944;-86
2022/05/16 12:52:39;;;;;;;;;;;36.70;22.60;;;;;;5078273;28;19908;-89
2022/05/16 12:55:11;;;;;;;;;;;36.60;22.80;;;;;;5065335;28;19931;-89
2022/05/16 12:57:50;;;;;;;;;;;36.70;22.90;;;;;;5067369;28;20331;-89
2022/05/16 13:00:18;;;;;;;;;;;36.50;23.20;;;;;;5065129;28;20287;-88
2022/05/16 13:03:02;;;;;;;;;;;36.30;23.60;;;;;;5076229;28;19955;-87
2022/05/16 13:05:35;;;;;;;;;;;36.20;23.70;;;;;;5058734;28;19916;-88
2022/05/16 13:08:03;;;;;;;;;;;36.10;23.80;;;;;;5075174;28;19912;-88
2022/05/16 13:10:32;;;;;;;;;;;36.00;24.00;;;;;;5057445;28;19920;-89
2022/05/16 13:13:06;;;;;;;;;;;35.90;24.10;;;;;;5084751;28;19939;-89
2022/05/16 13:15:47;;;;;;;;;;;35.90;24.10;;;;;;5060214;28;19920;-87
2022/05/16 13:18:20;;;;;;;;;;;36.00;24.30;;;;;;5079062;28;19916;-89
2022/05/16 13:20:46;;;;;;;;;;;36.10;24.30;;;;;;5074849;28;20003;-88
2022/05/16 13:23:14;;;;;;;;;;;36.20;24.20;;;;;;5078661;28;19951;-89
2022/05/16 13:31:19;;;;;;;;;;;37.00;23.50;;;;;;5070682;28;19927;-88
2022/05/16 13:33:59;;;;;;;;;;;37.20;23.20;;;;;;5082714;28;19920;-88
2022/05/16 13:36:25;;;;;;;;;;;37.20;23.10;;;;;;5065066;28;20459;-88
2022/05/16 13:38:52;;;;;;;;;;;37.30;22.90;;;;;;5062232;28;19942;-88
2022/05/16 13:41:24;;;;;;;;;;;37.20;23.00;;;;;;5054096;28;19998;-89
2022/05/16 13:43:50;;;;;;;;;;;37.10;23.20;;;;;;5054025;28;19971;-88
2022/05/16 13:46:16;;;;;;;;;;;37.10;23.40;;;;;;5057282;28;19966;-89
2022/05/16 13:48:42;;;;;;;;;;;37.20;23.40;;;;;;5077770;28;19930;-89
2022/05/16 13:51:08;;;;;;;;;;;37.20;23.70;;;;;;5054760;28;19924;-88
2022/05/16 13:53:37;;;;;;;;;;;37.20;23.70;;;;;;5050799;28;19920;-88
2022/05/16 13:56:03;;;;;;;;;;;37.10;23.60;;;;;;5058261;28;20069;-87
2022/05/16 13:58:32;;;;;;;;;;;37.10;23.70;;;;;;5044503;28;19959;-87
2022/05/16 14:01:12;;;;;;;;;;;36.80;23.90;;;;;;5074944;28;19920;-88
2022/05/16 14:03:38;;;;;;;;;;;36.60;24.40;;;;;;5061665;28;19959;-88
2022/05/16 14:06:04;;;;;;;;;;;36.30;24.60;;;;;;5055980;28;19923;-89
2022/05/16 14:08:41;;;;;;;;;;;36.20;24.90;;;;;;5062455;28;19916;-88
2022/05/16 14:11:09;;;;;;;;;;;36.10;25.10;;;;;;5062922;28;19927;-87
2022/05/16 14:13:38;;;;;;;;;;;35.90;25.40;;;;;;5060231;28;19923;-89
2022/05/16 14:16:11;;;;;;;;;;;35.90;25.60;;;;;;5082531;28;19911;-89
2022/05/16 14:18:44;;;;;;;;;;;35.90;25.70;;;;;;5052082;28;20264;-89
2022/05/16 14:21:16;;;;;;;;;;;35.80;25.70;;;;;;5078301;28;20081;-89
2022/05/16 14:23:43;;;;;;;;;;;35.80;25.80;;;;;;5071047;28;19920;-88
2022/05/16 14:26:17;;;;;;;;;;;35.60;25.80;;;;;;5084093;28;20050;-88
2022/05/16 14:28:48;;;;;;;;;;;35.60;25.90;;;;;;5081346;28;19923;-88
2022/05/16 14:31:19;;;;;;;;;;;35.40;26.10;;;;;;5056797;28;19915;-90
2022/05/16 14:33:56;;;;;;;;;;;35.40;26.20;;;;;;5058096;28;19924;-88
2022/05/16 14:36:24;;;;;;;;;;;35.40;26.30;;;;;;5055511;28;19924;-88
2022/05/16 14:38:50;;;;;;;;;;;35.30;26.20;;;;;;5057793;28;19923;-88
2022/05/16 14:41:20;;;;;;;;;;;35.30;26.30;;;;;;5079246;28;20595;-88
2022/05/16 14:43:54;;;;;;;;;;;35.20;26.50;;;;;;5054372;28;19944;-88
2022/05/16 14:49:04;;;;;;;;;;;35.00;26.80;;;;;;5078926;28;19927;-88
2022/05/16 14:51:30;;;;;;;;;;;34.90;26.80;;;;;;5074849;28;20354;-88
2022/05/16 14:53:56;;;;;;;;;;;34.80;26.80;;;;;;5075580;28;19935;-87
2022/05/16 14:56:22;;;;;;;;;;;34.70;26.80;;;;;;5058581;28;19924;-88
2022/05/16 14:58:48;;;;;;;;;;;34.70;27.00;;;;;;5078130;28;19916;-86
2022/05/16 15:04:04;;;;;;;;;;;34.70;27.30;;;;;;5077897;28;19954;-87
2022/05/16 15:06:37;;;;;;;;;;;34.70;27.50;;;;;;5074917;28;19940;-88
2022/05/16 15:09:05;;;;;;;;;;;34.70;27.50;;;;;;5078477;28;19916;-87
2022/05/16 15:11:33;;;;;;;;;;;34.70;27.50;;;;;;5082215;28;19924;-88
2022/05/16 15:13:59;;;;;;;;;;;34.50;27.60;;;;;;5065417;28;20059;-89